sensor_id;sensor_type;location;lat;lon;timestamp;P1;durP1;ratioP1;P2;durP2;ratioP2
1591;SDS011;789;51.612;7.510;2024-01-30T00:02:02;12.67;;;10.60;;
1591;SDS011;789;51.612;7.510;2024-01-30T00:04:29;12.80;;;10.30;;
1591;SDS011;789;51.612;7.510;2024-01-30T00:06:57;12.20;;;10.23;;
1591;SDS011;789;51.612;7.510;2024-01-30T00:09:23;14.07;;;10.07;;
1591;SDS011;789;51.612;7.510;2024-01-30T00:11:50;12.23;;;11.00;;
1591;SDS011;789;51.612;7.510;2024-01-30T00:14:17;18.00;;;10.83;;
1591;SDS011;789;51.612;7.510;2024-01-30T00:16:44;13.10;;;10.97;;
1591;SDS011;789;51.612;7.510;2024-01-30T00:19:11;14.50;;;11.13;;
1591;SDS011;789;51.612;7.510;2024-01-30T00:21:37;16.83;;;10.97;;
1591;SDS011;789;51.612;7.510;2024-01-30T00:24:06;14.07;;;10.80;;
1591;SDS011;789;51.612;7.510;2024-01-30T00:26:32;11.77;;;10.10;;
1591;SDS011;789;51.612;7.510;2024-01-30T00:28:59;14.03;;;10.40;;
1591;SDS011;789;51.612;7.510;2024-01-30T00:31:26;12.67;;;10.43;;
1591;SDS011;789;51.612;7.510;2024-01-30T00:33:54;13.00;;;11.60;;
1591;SDS011;789;51.612;7.510;2024-01-30T00:36:21;16.07;;;11.20;;
1591;SDS011;789;51.612;7.510;2024-01-30T00:38:48;13.83;;;10.67;;
1591;SDS011;789;51.612;7.510;2024-01-30T00:41:16;14.33;;;10.73;;
1591;SDS011;789;51.612;7.510;2024-01-30T00:43:44;13.80;;;11.93;;
1591;SDS011;789;51.612;7.510;2024-01-30T00:46:11;13.93;;;11.53;;
1591;SDS011;789;51.612;7.510;2024-01-30T00:48:38;17.70;;;12.13;;
1591;SDS011;789;51.612;7.510;2024-01-30T00:51:08;17.07;;;11.10;;
1591;SDS011;789;51.612;7.510;2024-01-30T00:53:35;13.20;;;11.07;;
1591;SDS011;789;51.612;7.510;2024-01-30T00:56:02;14.37;;;10.60;;
1591;SDS011;789;51.612;7.510;2024-01-30T00:58:30;14.67;;;11.83;;
1591;SDS011;789;51.612;7.510;2024-01-30T01:00:57;12.40;;;11.10;;
1591;SDS011;789;51.612;7.510;2024-01-30T01:03:24;15.17;;;11.70;;
1591;SDS011;789;51.612;7.510;2024-01-30T01:05:51;15.07;;;10.63;;
1591;SDS011;789;51.612;7.510;2024-01-30T01:08:18;16.10;;;11.40;;
1591;SDS011;789;51.612;7.510;2024-01-30T01:10:45;15.50;;;11.70;;
1591;SDS011;789;51.612;7.510;2024-01-30T01:13:12;13.40;;;11.30;;
1591;SDS011;789;51.612;7.510;2024-01-30T01:15:40;16.57;;;11.53;;
1591;SDS011;789;51.612;7.510;2024-01-30T01:18:07;13.67;;;10.40;;
1591;SDS011;789;51.612;7.510;2024-01-30T01:20:34;12.60;;;10.33;;
1591;SDS011;789;51.612;7.510;2024-01-30T01:23:00;13.30;;;10.70;;
1591;SDS011;789;51.612;7.510;2024-01-30T01:25:27;17.03;;;11.30;;
1591;SDS011;789;51.612;7.510;2024-01-30T01:27:54;13.73;;;11.47;;
1591;SDS011;789;51.612;7.510;2024-01-30T01:30:21;11.50;;;10.40;;
1591;SDS011;789;51.612;7.510;2024-01-30T01:32:50;14.77;;;11.47;;
1591;SDS011;789;51.612;7.510;2024-01-30T01:35:20;14.40;;;11.40;;
1591;SDS011;789;51.612;7.510;2024-01-30T01:37:47;13.70;;;10.53;;
1591;SDS011;789;51.612;7.510;2024-01-30T01:40:19;14.60;;;11.07;;
1591;SDS011;789;51.612;7.510;2024-01-30T01:42:47;15.07;;;10.93;;
1591;SDS011;789;51.612;7.510;2024-01-30T01:45:15;14.50;;;10.53;;
1591;SDS011;789;51.612;7.510;2024-01-30T01:47:44;15.63;;;11.60;;
1591;SDS011;789;51.612;7.510;2024-01-30T01:50:15;13.90;;;11.50;;
1591;SDS011;789;51.612;7.510;2024-01-30T01:52:43;15.73;;;11.00;;
1591;SDS011;789;51.612;7.510;2024-01-30T01:55:10;13.30;;;11.43;;
1591;SDS011;789;51.612;7.510;2024-01-30T01:57:38;16.20;;;11.23;;
1591;SDS011;789;51.612;7.510;2024-01-30T02:00:06;12.50;;;10.77;;
1591;SDS011;789;51.612;7.510;2024-01-30T02:02:35;16.23;;;11.67;;
1591;SDS011;789;51.612;7.510;2024-01-30T02:05:02;13.00;;;10.63;;
1591;SDS011;789;51.612;7.510;2024-01-30T02:07:32;13.10;;;11.03;;
1591;SDS011;789;51.612;7.510;2024-01-30T02:09:59;14.07;;;12.50;;
1591;SDS011;789;51.612;7.510;2024-01-30T02:12:26;16.30;;;14.40;;
1591;SDS011;789;51.612;7.510;2024-01-30T02:14:53;17.03;;;14.77;;
1591;SDS011;789;51.612;7.510;2024-01-30T02:17:20;15.20;;;12.80;;
1591;SDS011;789;51.612;7.510;2024-01-30T02:19:48;14.27;;;11.77;;
1591;SDS011;789;51.612;7.510;2024-01-30T02:22:20;15.40;;;12.10;;
1591;SDS011;789;51.612;7.510;2024-01-30T02:24:47;16.10;;;11.20;;
1591;SDS011;789;51.612;7.510;2024-01-30T02:27:14;14.10;;;12.00;;
1591;SDS011;789;51.612;7.510;2024-01-30T02:29:41;17.00;;;10.90;;
1591;SDS011;789;51.612;7.510;2024-01-30T02:32:08;14.03;;;11.67;;
1591;SDS011;789;51.612;7.510;2024-01-30T02:34:35;16.23;;;11.53;;
1591;SDS011;789;51.612;7.510;2024-01-30T02:37:02;15.20;;;10.80;;
1591;SDS011;789;51.612;7.510;2024-01-30T02:39:29;13.07;;;10.93;;
1591;SDS011;789;51.612;7.510;2024-01-30T02:41:56;13.33;;;10.33;;
1591;SDS011;789;51.612;7.510;2024-01-30T02:44:23;14.47;;;11.33;;
1591;SDS011;789;51.612;7.510;2024-01-30T02:46:50;13.90;;;11.60;;
1591;SDS011;789;51.612;7.510;2024-01-30T02:49:19;12.43;;;11.13;;
1591;SDS011;789;51.612;7.510;2024-01-30T02:51:45;13.77;;;11.53;;
1591;SDS011;789;51.612;7.510;2024-01-30T02:54:15;15.87;;;11.53;;
1591;SDS011;789;51.612;7.510;2024-01-30T02:56:46;14.03;;;10.50;;
1591;SDS011;789;51.612;7.510;2024-01-30T02:59:13;13.33;;;10.83;;
1591;SDS011;789;51.612;7.510;2024-01-30T03:01:43;13.87;;;11.30;;
1591;SDS011;789;51.612;7.510;2024-01-30T03:04:10;15.33;;;11.20;;
1591;SDS011;789;51.612;7.510;2024-01-30T03:06:37;13.93;;;11.27;;
1591;SDS011;789;51.612;7.510;2024-01-30T03:09:03;15.60;;;13.30;;
1591;SDS011;789;51.612;7.510;2024-01-30T03:11:30;15.87;;;11.53;;
1591;SDS011;789;51.612;7.510;2024-01-30T03:13:58;21.87;;;11.93;;
1591;SDS011;789;51.612;7.510;2024-01-30T03:16:26;18.13;;;12.03;;
1591;SDS011;789;51.612;7.510;2024-01-30T03:18:53;16.93;;;12.70;;
1591;SDS011;789;51.612;7.510;2024-01-30T03:21:20;16.43;;;13.07;;
1591;SDS011;789;51.612;7.510;2024-01-30T03:23:47;14.53;;;11.97;;
1591;SDS011;789;51.612;7.510;2024-01-30T03:26:15;14.27;;;11.50;;
1591;SDS011;789;51.612;7.510;2024-01-30T03:28:42;20.63;;;12.20;;
1591;SDS011;789;51.612;7.510;2024-01-30T03:31:10;15.00;;;11.70;;
1591;SDS011;789;51.612;7.510;2024-01-30T03:33:40;14.60;;;11.73;;
1591;SDS011;789;51.612;7.510;2024-01-30T03:36:07;14.37;;;11.10;;
1591;SDS011;789;51.612;7.510;2024-01-30T03:38:34;18.47;;;12.10;;
1591;SDS011;789;51.612;7.510;2024-01-30T03:41:02;13.90;;;11.47;;
1591;SDS011;789;51.612;7.510;2024-01-30T03:43:28;14.93;;;11.50;;
1591;SDS011;789;51.612;7.510;2024-01-30T03:45:55;16.40;;;12.40;;
1591;SDS011;789;51.612;7.510;2024-01-30T03:48:24;16.23;;;11.20;;
1591;SDS011;789;51.612;7.510;2024-01-30T03:50:50;14.93;;;11.83;;
1591;SDS011;789;51.612;7.510;2024-01-30T03:53:17;15.47;;;12.27;;
1591;SDS011;789;51.612;7.510;2024-01-30T03:55:44;14.43;;;11.30;;
1591;SDS011;789;51.612;7.510;2024-01-30T03:58:14;16.90;;;12.77;;
1591;SDS011;789;51.612;7.510;2024-01-30T04:00:40;17.90;;;12.00;;
1591;SDS011;789;51.612;7.510;2024-01-30T04:03:07;12.83;;;11.00;;
1591;SDS011;789;51.612;7.510;2024-01-30T04:05:35;14.87;;;11.57;;
1591;SDS011;789;51.612;7.510;2024-01-30T04:08:02;16.23;;;11.80;;
1591;SDS011;789;51.612;7.510;2024-01-30T04:10:29;19.23;;;12.43;;
1591;SDS011;789;51.612;7.510;2024-01-30T04:12:55;17.97;;;12.30;;
1591;SDS011;789;51.612;7.510;2024-01-30T04:15:24;19.70;;;12.97;;
1591;SDS011;789;51.612;7.510;2024-01-30T04:17:53;14.40;;;12.37;;
1591;SDS011;789;51.612;7.510;2024-01-30T04:20:20;16.90;;;12.40;;
1591;SDS011;789;51.612;7.510;2024-01-30T04:22:48;17.80;;;12.40;;
1591;SDS011;789;51.612;7.510;2024-01-30T04:25:14;15.87;;;12.17;;
1591;SDS011;789;51.612;7.510;2024-01-30T04:27:43;17.23;;;11.70;;
1591;SDS011;789;51.612;7.510;2024-01-30T04:30:12;15.37;;;11.60;;
1591;SDS011;789;51.612;7.510;2024-01-30T04:32:42;16.53;;;12.10;;
1591;SDS011;789;51.612;7.510;2024-01-30T04:35:10;17.77;;;12.90;;
1591;SDS011;789;51.612;7.510;2024-01-30T04:37:36;17.80;;;12.00;;
1591;SDS011;789;51.612;7.510;2024-01-30T04:40:05;20.33;;;13.07;;
1591;SDS011;789;51.612;7.510;2024-01-30T04:42:33;17.87;;;12.63;;
1591;SDS011;789;51.612;7.510;2024-01-30T04:45:02;17.50;;;11.67;;
1591;SDS011;789;51.612;7.510;2024-01-30T04:47:29;15.50;;;10.80;;
1591;SDS011;789;51.612;7.510;2024-01-30T04:49:56;14.00;;;10.50;;
1591;SDS011;789;51.612;7.510;2024-01-30T04:52:23;15.47;;;11.10;;
1591;SDS011;789;51.612;7.510;2024-01-30T04:54:49;15.30;;;10.80;;
1591;SDS011;789;51.612;7.510;2024-01-30T04:57:17;17.97;;;11.00;;
1591;SDS011;789;51.612;7.510;2024-01-30T04:59:44;14.33;;;11.53;;
1591;SDS011;789;51.612;7.510;2024-01-30T05:02:11;14.47;;;11.10;;
1591;SDS011;789;51.612;7.510;2024-01-30T05:04:38;18.80;;;10.93;;
1591;SDS011;789;51.612;7.510;2024-01-30T05:07:07;14.50;;;11.43;;
1591;SDS011;789;51.612;7.510;2024-01-30T05:09:33;15.10;;;11.23;;
1591;SDS011;789;51.612;7.510;2024-01-30T05:12:00;13.63;;;10.93;;
1591;SDS011;789;51.612;7.510;2024-01-30T05:14:28;13.43;;;10.23;;
1591;SDS011;789;51.612;7.510;2024-01-30T05:16:55;12.73;;;10.97;;
1591;SDS011;789;51.612;7.510;2024-01-30T05:19:22;20.73;;;11.07;;
1591;SDS011;789;51.612;7.510;2024-01-30T05:21:49;15.07;;;10.67;;
1591;SDS011;789;51.612;7.510;2024-01-30T05:24:16;13.40;;;10.90;;
1591;SDS011;789;51.612;7.510;2024-01-30T05:26:43;11.03;;;9.13;;
1591;SDS011;789;51.612;7.510;2024-01-30T05:29:10;18.23;;;10.40;;
1591;SDS011;789;51.612;7.510;2024-01-30T05:31:38;14.70;;;10.70;;
1591;SDS011;789;51.612;7.510;2024-01-30T05:34:05;13.93;;;10.37;;
1591;SDS011;789;51.612;7.510;2024-01-30T05:36:34;13.90;;;10.30;;
1591;SDS011;789;51.612;7.510;2024-01-30T05:39:01;16.13;;;11.07;;
1591;SDS011;789;51.612;7.510;2024-01-30T05:41:27;15.27;;;10.93;;
1591;SDS011;789;51.612;7.510;2024-01-30T05:43:54;16.00;;;11.20;;
1591;SDS011;789;51.612;7.510;2024-01-30T05:46:21;14.20;;;10.63;;
1591;SDS011;789;51.612;7.510;2024-01-30T05:48:49;15.03;;;11.60;;
1591;SDS011;789;51.612;7.510;2024-01-30T05:51:16;15.67;;;10.97;;
1591;SDS011;789;51.612;7.510;2024-01-30T05:53:43;14.90;;;11.80;;
1591;SDS011;789;51.612;7.510;2024-01-30T05:56:09;14.70;;;10.97;;
1591;SDS011;789;51.612;7.510;2024-01-30T05:58:36;13.50;;;10.87;;
1591;SDS011;789;51.612;7.510;2024-01-30T06:01:03;13.03;;;10.73;;
1591;SDS011;789;51.612;7.510;2024-01-30T06:03:33;14.17;;;11.20;;
1591;SDS011;789;51.612;7.510;2024-01-30T06:06:01;12.33;;;10.80;;
1591;SDS011;789;51.612;7.510;2024-01-30T06:08:28;16.37;;;11.53;;
1591;SDS011;789;51.612;7.510;2024-01-30T06:10:55;12.20;;;10.40;;
1591;SDS011;789;51.612;7.510;2024-01-30T06:13:22;16.20;;;11.17;;
1591;SDS011;789;51.612;7.510;2024-01-30T06:15:49;13.40;;;11.30;;
1591;SDS011;789;51.612;7.510;2024-01-30T06:18:15;13.70;;;10.53;;
1591;SDS011;789;51.612;7.510;2024-01-30T06:20:42;17.53;;;12.93;;
1591;SDS011;789;51.612;7.510;2024-01-30T06:23:10;20.93;;;11.07;;
1591;SDS011;789;51.612;7.510;2024-01-30T06:25:38;14.90;;;11.07;;
1591;SDS011;789;51.612;7.510;2024-01-30T06:28:05;14.50;;;10.80;;
1591;SDS011;789;51.612;7.510;2024-01-30T06:30:31;16.53;;;12.20;;
1591;SDS011;789;51.612;7.510;2024-01-30T06:32:59;13.80;;;11.90;;
1591;SDS011;789;51.612;7.510;2024-01-30T06:35:25;17.43;;;11.50;;
1591;SDS011;789;51.612;7.510;2024-01-30T06:37:53;15.73;;;12.00;;
1591;SDS011;789;51.612;7.510;2024-01-30T06:40:21;14.00;;;11.37;;
1591;SDS011;789;51.612;7.510;2024-01-30T06:42:48;16.97;;;11.83;;
1591;SDS011;789;51.612;7.510;2024-01-30T06:45:16;15.63;;;13.07;;
1591;SDS011;789;51.612;7.510;2024-01-30T06:47:43;17.57;;;13.60;;
1591;SDS011;789;51.612;7.510;2024-01-30T06:50:10;15.93;;;12.20;;
1591;SDS011;789;51.612;7.510;2024-01-30T06:52:37;15.27;;;11.40;;
1591;SDS011;789;51.612;7.510;2024-01-30T06:55:07;15.60;;;12.47;;
1591;SDS011;789;51.612;7.510;2024-01-30T07:03:27;13.03;;;11.17;;
1591;SDS011;789;51.612;7.510;2024-01-30T07:05:54;13.40;;;11.90;;
1591;SDS011;789;51.612;7.510;2024-01-30T07:08:21;13.17;;;10.73;;
1591;SDS011;789;51.612;7.510;2024-01-30T07:10:48;15.83;;;11.90;;
1591;SDS011;789;51.612;7.510;2024-01-30T07:13:14;13.97;;;11.23;;
1591;SDS011;789;51.612;7.510;2024-01-30T07:15:42;14.40;;;11.80;;
1591;SDS011;789;51.612;7.510;2024-01-30T07:18:10;16.00;;;10.60;;
1591;SDS011;789;51.612;7.510;2024-01-30T07:20:40;19.57;;;11.70;;
1591;SDS011;789;51.612;7.510;2024-01-30T07:23:11;17.67;;;10.57;;
1591;SDS011;789;51.612;7.510;2024-01-30T07:25:39;17.53;;;11.30;;
1591;SDS011;789;51.612;7.510;2024-01-30T07:28:06;15.53;;;11.80;;
1591;SDS011;789;51.612;7.510;2024-01-30T07:30:35;14.00;;;10.00;;
1591;SDS011;789;51.612;7.510;2024-01-30T07:33:01;14.93;;;10.47;;
1591;SDS011;789;51.612;7.510;2024-01-30T07:35:29;17.07;;;10.87;;
1591;SDS011;789;51.612;7.510;2024-01-30T07:37:57;15.27;;;10.73;;
1591;SDS011;789;51.612;7.510;2024-01-30T07:40:24;12.53;;;9.70;;
1591;SDS011;789;51.612;7.510;2024-01-30T07:42:52;15.83;;;10.87;;
1591;SDS011;789;51.612;7.510;2024-01-30T07:45:20;11.53;;;9.90;;
1591;SDS011;789;51.612;7.510;2024-01-30T07:47:50;15.60;;;10.80;;
1591;SDS011;789;51.612;7.510;2024-01-30T07:50:17;17.60;;;11.47;;
1591;SDS011;789;51.612;7.510;2024-01-30T07:52:44;12.13;;;9.80;;
1591;SDS011;789;51.612;7.510;2024-01-30T07:55:12;13.80;;;10.80;;
1591;SDS011;789;51.612;7.510;2024-01-30T07:57:41;12.40;;;10.90;;
1591;SDS011;789;51.612;7.510;2024-01-30T08:00:08;13.57;;;10.60;;
1591;SDS011;789;51.612;7.510;2024-01-30T08:02:36;14.90;;;10.57;;
1591;SDS011;789;51.612;7.510;2024-01-30T08:05:04;15.13;;;10.67;;
1591;SDS011;789;51.612;7.510;2024-01-30T08:07:31;15.67;;;11.47;;
1591;SDS011;789;51.612;7.510;2024-01-30T08:09:57;15.20;;;12.00;;
1591;SDS011;789;51.612;7.510;2024-01-30T08:12:27;13.37;;;10.70;;
1591;SDS011;789;51.612;7.510;2024-01-30T08:14:54;14.77;;;10.90;;
1591;SDS011;789;51.612;7.510;2024-01-30T08:17:21;15.30;;;10.53;;
1591;SDS011;789;51.612;7.510;2024-01-30T08:19:48;12.50;;;11.07;;
1591;SDS011;789;51.612;7.510;2024-01-30T08:22:15;11.80;;;10.60;;
1591;SDS011;789;51.612;7.510;2024-01-30T08:24:43;24.77;;;10.57;;
1591;SDS011;789;51.612;7.510;2024-01-30T08:27:10;13.43;;;9.77;;
1591;SDS011;789;51.612;7.510;2024-01-30T08:29:38;11.07;;;9.83;;
1591;SDS011;789;51.612;7.510;2024-01-30T08:32:05;13.60;;;10.30;;
1591;SDS011;789;51.612;7.510;2024-01-30T08:34:33;12.60;;;9.10;;
1591;SDS011;789;51.612;7.510;2024-01-30T08:37:00;13.43;;;9.90;;
1591;SDS011;789;51.612;7.510;2024-01-30T08:39:27;15.03;;;10.03;;
1591;SDS011;789;51.612;7.510;2024-01-30T08:41:54;10.23;;;9.10;;
1591;SDS011;789;51.612;7.510;2024-01-30T08:44:20;14.30;;;9.33;;
1591;SDS011;789;51.612;7.510;2024-01-30T08:46:49;12.00;;;9.50;;
1591;SDS011;789;51.612;7.510;2024-01-30T08:49:16;10.50;;;9.50;;
1591;SDS011;789;51.612;7.510;2024-01-30T08:51:43;14.80;;;9.30;;
1591;SDS011;789;51.612;7.510;2024-01-30T08:54:11;12.93;;;10.07;;
1591;SDS011;789;51.612;7.510;2024-01-30T08:56:38;13.10;;;9.53;;
1591;SDS011;789;51.612;7.510;2024-01-30T08:59:05;13.17;;;10.13;;
1591;SDS011;789;51.612;7.510;2024-01-30T09:01:32;12.50;;;9.53;;
1591;SDS011;789;51.612;7.510;2024-01-30T09:04:01;11.87;;;8.90;;
1591;SDS011;789;51.612;7.510;2024-01-30T09:06:29;14.10;;;10.27;;
1591;SDS011;789;51.612;7.510;2024-01-30T09:08:56;18.13;;;11.10;;
1591;SDS011;789;51.612;7.510;2024-01-30T09:11:23;13.43;;;11.33;;
1591;SDS011;789;51.612;7.510;2024-01-30T09:13:50;13.00;;;10.50;;
1591;SDS011;789;51.612;7.510;2024-01-30T09:16:17;16.77;;;10.03;;
1591;SDS011;789;51.612;7.510;2024-01-30T09:18:43;16.13;;;10.17;;
1591;SDS011;789;51.612;7.510;2024-01-30T09:21:11;11.30;;;8.83;;
1591;SDS011;789;51.612;7.510;2024-01-30T09:23:39;14.20;;;9.20;;
1591;SDS011;789;51.612;7.510;2024-01-30T09:26:06;14.20;;;9.43;;
1591;SDS011;789;51.612;7.510;2024-01-30T09:28:33;15.67;;;9.90;;
1591;SDS011;789;51.612;7.510;2024-01-30T09:31:00;16.07;;;9.93;;
1591;SDS011;789;51.612;7.510;2024-01-30T09:33:27;11.97;;;8.50;;
1591;SDS011;789;51.612;7.510;2024-01-30T09:35:54;9.20;;;8.20;;
1591;SDS011;789;51.612;7.510;2024-01-30T09:38:22;10.57;;;8.33;;
1591;SDS011;789;51.612;7.510;2024-01-30T09:40:54;12.67;;;8.47;;
1591;SDS011;789;51.612;7.510;2024-01-30T09:43:22;13.77;;;8.33;;
1591;SDS011;789;51.612;7.510;2024-01-30T09:45:50;14.90;;;7.60;;
1591;SDS011;789;51.612;7.510;2024-01-30T09:48:18;11.13;;;7.37;;
1591;SDS011;789;51.612;7.510;2024-01-30T09:50:45;12.03;;;7.60;;
1591;SDS011;789;51.612;7.510;2024-01-30T09:53:12;11.23;;;7.10;;
1591;SDS011;789;51.612;7.510;2024-01-30T09:55:42;10.50;;;8.57;;
1591;SDS011;789;51.612;7.510;2024-01-30T09:58:09;10.30;;;7.67;;
1591;SDS011;789;51.612;7.510;2024-01-30T10:00:39;11.77;;;8.33;;
1591;SDS011;789;51.612;7.510;2024-01-30T10:03:06;11.37;;;8.43;;
1591;SDS011;789;51.612;7.510;2024-01-30T10:05:33;13.37;;;8.40;;
1591;SDS011;789;51.612;7.510;2024-01-30T10:08:05;12.50;;;8.33;;
1591;SDS011;789;51.612;7.510;2024-01-30T10:10:33;13.07;;;9.83;;
1591;SDS011;789;51.612;7.510;2024-01-30T10:13:01;14.60;;;8.63;;
1591;SDS011;789;51.612;7.510;2024-01-30T10:15:28;9.77;;;8.00;;
1591;SDS011;789;51.612;7.510;2024-01-30T10:17:55;9.13;;;8.10;;
1591;SDS011;789;51.612;7.510;2024-01-30T10:20:22;21.20;;;8.90;;
1591;SDS011;789;51.612;7.510;2024-01-30T10:22:51;12.63;;;8.30;;
1591;SDS011;789;51.612;7.510;2024-01-30T10:25:17;10.60;;;8.40;;
1591;SDS011;789;51.612;7.510;2024-01-30T10:27:52;13.10;;;8.40;;
1591;SDS011;789;51.612;7.510;2024-01-30T10:30:21;9.90;;;8.27;;
1591;SDS011;789;51.612;7.510;2024-01-30T10:32:50;11.80;;;8.10;;
1591;SDS011;789;51.612;7.510;2024-01-30T10:35:17;15.10;;;9.97;;
1591;SDS011;789;51.612;7.510;2024-01-30T10:37:51;17.63;;;9.73;;
1591;SDS011;789;51.612;7.510;2024-01-30T10:40:19;14.43;;;9.27;;
1591;SDS011;789;51.612;7.510;2024-01-30T10:42:53;15.30;;;7.97;;
1591;SDS011;789;51.612;7.510;2024-01-30T10:45:23;18.83;;;8.87;;
1591;SDS011;789;51.612;7.510;2024-01-30T10:47:53;9.00;;;7.13;;
1591;SDS011;789;51.612;7.510;2024-01-30T10:50:22;13.20;;;6.80;;
1591;SDS011;789;51.612;7.510;2024-01-30T10:52:51;11.03;;;6.80;;
1591;SDS011;789;51.612;7.510;2024-01-30T10:55:19;17.20;;;7.80;;
1591;SDS011;789;51.612;7.510;2024-01-30T10:57:48;22.17;;;8.10;;
1591;SDS011;789;51.612;7.510;2024-01-30T11:00:15;16.10;;;7.90;;
1591;SDS011;789;51.612;7.510;2024-01-30T11:02:48;13.10;;;6.90;;
1591;SDS011;789;51.612;7.510;2024-01-30T11:05:22;13.60;;;7.20;;
1591;SDS011;789;51.612;7.510;2024-01-30T11:07:50;11.77;;;6.73;;
1591;SDS011;789;51.612;7.510;2024-01-30T11:10:16;12.50;;;7.73;;
1591;SDS011;789;51.612;7.510;2024-01-30T11:12:46;9.40;;;6.80;;
1591;SDS011;789;51.612;7.510;2024-01-30T11:15:16;12.97;;;7.13;;
1591;SDS011;789;51.612;7.510;2024-01-30T11:17:43;14.60;;;6.90;;
1591;SDS011;789;51.612;7.510;2024-01-30T11:20:13;9.17;;;6.67;;
1591;SDS011;789;51.612;7.510;2024-01-30T11:22:42;8.97;;;6.77;;
1591;SDS011;789;51.612;7.510;2024-01-30T11:25:13;15.80;;;7.40;;
1591;SDS011;789;51.612;7.510;2024-01-30T11:27:41;9.63;;;6.80;;
1591;SDS011;789;51.612;7.510;2024-01-30T11:30:08;10.53;;;6.70;;
1591;SDS011;789;51.612;7.510;2024-01-30T11:32:35;8.87;;;6.20;;
1591;SDS011;789;51.612;7.510;2024-01-30T11:35:03;9.60;;;5.80;;
1591;SDS011;789;51.612;7.510;2024-01-30T11:37:33;12.70;;;5.93;;
1591;SDS011;789;51.612;7.510;2024-01-30T11:40:04;14.13;;;6.80;;
1591;SDS011;789;51.612;7.510;2024-01-30T11:42:33;11.60;;;7.03;;
1591;SDS011;789;51.612;7.510;2024-01-30T11:45:05;9.57;;;6.10;;
1591;SDS011;789;51.612;7.510;2024-01-30T11:47:34;18.00;;;6.87;;
1591;SDS011;789;51.612;7.510;2024-01-30T11:50:01;8.40;;;6.90;;
1591;SDS011;789;51.612;7.510;2024-01-30T11:52:30;11.07;;;6.60;;
1591;SDS011;789;51.612;7.510;2024-01-30T11:55:02;14.43;;;7.70;;
1591;SDS011;789;51.612;7.510;2024-01-30T11:57:29;10.77;;;6.70;;
1591;SDS011;789;51.612;7.510;2024-01-30T11:59:56;18.73;;;8.00;;
1591;SDS011;789;51.612;7.510;2024-01-30T12:02:22;10.80;;;7.13;;
1591;SDS011;789;51.612;7.510;2024-01-30T12:04:49;9.90;;;7.67;;
1591;SDS011;789;51.612;7.510;2024-01-30T12:07:16;13.10;;;6.83;;
1591;SDS011;789;51.612;7.510;2024-01-30T12:09:52;11.90;;;6.80;;
1591;SDS011;789;51.612;7.510;2024-01-30T12:12:21;8.90;;;6.90;;
1591;SDS011;789;51.612;7.510;2024-01-30T12:14:49;15.17;;;7.37;;
1591;SDS011;789;51.612;7.510;2024-01-30T12:17:22;12.30;;;7.03;;
1591;SDS011;789;51.612;7.510;2024-01-30T12:19:50;17.83;;;8.30;;
1591;SDS011;789;51.612;7.510;2024-01-30T12:22:19;12.70;;;7.67;;
1591;SDS011;789;51.612;7.510;2024-01-30T12:24:46;11.73;;;7.37;;
1591;SDS011;789;51.612;7.510;2024-01-30T12:27:16;10.00;;;6.70;;
1591;SDS011;789;51.612;7.510;2024-01-30T12:29:43;10.00;;;7.73;;
1591;SDS011;789;51.612;7.510;2024-01-30T12:32:14;19.30;;;9.00;;
1591;SDS011;789;51.612;7.510;2024-01-30T12:34:41;13.17;;;7.90;;
1591;SDS011;789;51.612;7.510;2024-01-30T12:37:08;10.17;;;7.57;;
1591;SDS011;789;51.612;7.510;2024-01-30T12:39:36;12.20;;;7.53;;
1591;SDS011;789;51.612;7.510;2024-01-30T12:42:03;11.50;;;7.87;;
1591;SDS011;789;51.612;7.510;2024-01-30T12:44:32;18.03;;;7.97;;
1591;SDS011;789;51.612;7.510;2024-01-30T12:46:59;10.93;;;7.07;;
1591;SDS011;789;51.612;7.510;2024-01-30T12:49:29;21.20;;;8.90;;
1591;SDS011;789;51.612;7.510;2024-01-30T12:51:56;17.87;;;8.37;;
1591;SDS011;789;51.612;7.510;2024-01-30T12:54:24;12.30;;;7.47;;
1591;SDS011;789;51.612;7.510;2024-01-30T12:56:51;12.17;;;7.67;;
1591;SDS011;789;51.612;7.510;2024-01-30T12:59:18;12.97;;;7.83;;
1591;SDS011;789;51.612;7.510;2024-01-30T13:01:46;11.40;;;7.20;;
1591;SDS011;789;51.612;7.510;2024-01-30T13:04:13;13.93;;;8.70;;
1591;SDS011;789;51.612;7.510;2024-01-30T13:06:41;16.10;;;7.57;;
1591;SDS011;789;51.612;7.510;2024-01-30T13:09:08;18.30;;;8.77;;
1591;SDS011;789;51.612;7.510;2024-01-30T13:11:35;13.40;;;7.90;;
1591;SDS011;789;51.612;7.510;2024-01-30T13:14:05;17.00;;;8.30;;
1591;SDS011;789;51.612;7.510;2024-01-30T13:16:32;10.53;;;7.47;;
1591;SDS011;789;51.612;7.510;2024-01-30T13:19:00;14.43;;;8.33;;
1591;SDS011;789;51.612;7.510;2024-01-30T13:21:27;9.50;;;7.70;;
1591;SDS011;789;51.612;7.510;2024-01-30T13:23:54;15.13;;;8.50;;
1591;SDS011;789;51.612;7.510;2024-01-30T13:26:21;15.40;;;8.23;;
1591;SDS011;789;51.612;7.510;2024-01-30T13:28:48;9.20;;;8.20;;
1591;SDS011;789;51.612;7.510;2024-01-30T13:31:16;12.50;;;8.37;;
1591;SDS011;789;51.612;7.510;2024-01-30T13:33:44;14.80;;;8.27;;
1591;SDS011;789;51.612;7.510;2024-01-30T13:36:12;16.93;;;8.63;;
1591;SDS011;789;51.612;7.510;2024-01-30T13:38:39;14.80;;;8.63;;
1591;SDS011;789;51.612;7.510;2024-01-30T13:41:06;14.70;;;8.60;;
1591;SDS011;789;51.612;7.510;2024-01-30T13:43:33;14.10;;;9.10;;
1591;SDS011;789;51.612;7.510;2024-01-30T13:46:07;15.37;;;9.03;;
1591;SDS011;789;51.612;7.510;2024-01-30T13:48:34;16.60;;;8.83;;
1591;SDS011;789;51.612;7.510;2024-01-30T13:51:01;17.23;;;8.87;;
1591;SDS011;789;51.612;7.510;2024-01-30T13:53:29;10.40;;;8.23;;
1591;SDS011;789;51.612;7.510;2024-01-30T13:55:56;13.30;;;9.03;;
1591;SDS011;789;51.612;7.510;2024-01-30T13:58:23;10.73;;;8.73;;
1591;SDS011;789;51.612;7.510;2024-01-30T14:00:50;13.53;;;8.67;;
1591;SDS011;789;51.612;7.510;2024-01-30T14:03:17;11.73;;;9.47;;
1591;SDS011;789;51.612;7.510;2024-01-30T14:05:43;24.73;;;10.10;;
1591;SDS011;789;51.612;7.510;2024-01-30T14:08:11;14.00;;;7.90;;
1591;SDS011;789;51.612;7.510;2024-01-30T14:10:40;13.43;;;8.40;;
1591;SDS011;789;51.612;7.510;2024-01-30T14:13:08;17.40;;;9.77;;
1591;SDS011;789;51.612;7.510;2024-01-30T14:15:36;25.93;;;11.10;;
1591;SDS011;789;51.612;7.510;2024-01-30T14:18:03;12.03;;;10.03;;
1591;SDS011;789;51.612;7.510;2024-01-30T14:20:31;15.03;;;11.13;;
1591;SDS011;789;51.612;7.510;2024-01-30T14:22:58;18.50;;;10.67;;
1591;SDS011;789;51.612;7.510;2024-01-30T14:25:28;19.10;;;10.50;;
1591;SDS011;789;51.612;7.510;2024-01-30T14:27:56;14.73;;;9.80;;
1591;SDS011;789;51.612;7.510;2024-01-30T14:30:23;16.20;;;10.17;;
1591;SDS011;789;51.612;7.510;2024-01-30T14:32:50;20.40;;;10.30;;
1591;SDS011;789;51.612;7.510;2024-01-30T14:35:17;14.40;;;10.27;;
1591;SDS011;789;51.612;7.510;2024-01-30T14:37:44;12.70;;;10.40;;
1591;SDS011;789;51.612;7.510;2024-01-30T14:40:11;15.13;;;10.57;;
1591;SDS011;789;51.612;7.510;2024-01-30T14:42:38;11.90;;;8.93;;
1591;SDS011;789;51.612;7.510;2024-01-30T14:45:06;12.37;;;9.63;;
1591;SDS011;789;51.612;7.510;2024-01-30T14:47:34;14.30;;;9.87;;
1591;SDS011;789;51.612;7.510;2024-01-30T14:50:01;21.43;;;10.50;;
1591;SDS011;789;51.612;7.510;2024-01-30T14:52:29;13.37;;;9.47;;
1591;SDS011;789;51.612;7.510;2024-01-30T14:54:56;19.57;;;9.73;;
1591;SDS011;789;51.612;7.510;2024-01-30T14:57:23;15.30;;;10.40;;
1591;SDS011;789;51.612;7.510;2024-01-30T14:59:50;13.83;;;8.57;;
1591;SDS011;789;51.612;7.510;2024-01-30T15:02:19;14.23;;;9.00;;
1591;SDS011;789;51.612;7.510;2024-01-30T15:04:46;12.17;;;9.00;;
1591;SDS011;789;51.612;7.510;2024-01-30T15:07:12;10.60;;;8.57;;
1591;SDS011;789;51.612;7.510;2024-01-30T15:09:39;9.83;;;8.27;;
1591;SDS011;789;51.612;7.510;2024-01-30T15:12:07;13.70;;;9.33;;
1591;SDS011;789;51.612;7.510;2024-01-30T15:14:34;15.93;;;9.37;;
1591;SDS011;789;51.612;7.510;2024-01-30T15:17:02;13.80;;;9.10;;